createdAt,value
2023-02-19T00:01:58.410Z,101849.69
2023-02-19T00:04:31.343Z,101849.16
2023-02-19T00:06:58.024Z,101838.22
2023-02-19T00:09:30.824Z,101851.88
2023-02-19T00:11:59.001Z,101842.06
2023-02-19T00:14:31.971Z,101845.91
2023-02-19T00:16:58.833Z,101845.91
2023-02-19T00:19:31.809Z,101845.91
2023-02-19T00:22:03.043Z,101850.03
2023-02-19T00:24:32.884Z,101855.22
2023-02-19T00:26:59.474Z,101857.94
2023-02-19T00:29:26.140Z,101852.75
2023-02-19T00:31:54.326Z,101859.03
2023-02-19T00:34:30.239Z,101863.41
2023-02-19T00:36:57.121Z,101860.69
2023-02-19T00:39:29.870Z,101859.03
2023-02-19T00:41:59.446Z,101864.53
2023-02-19T00:44:28.246Z,101862.88
2023-02-19T00:47:00.402Z,101857.41
2023-02-19T00:49:30.033Z,101865.63
2023-02-19T00:51:57.157Z,101864.00
2023-02-19T00:54:31.968Z,101859.63
2023-02-19T00:56:58.821Z,101858.53
2023-02-19T00:59:25.441Z,101860.44
2023-02-19T01:01:52.302Z,101868.66
2023-02-19T01:04:21.944Z,101872.78
2023-02-19T01:07:38.645Z,101877.13
2023-02-19T01:10:07.273Z,101873.88
2023-02-19T01:12:33.912Z,101870.03
2023-02-19T01:15:00.461Z,101882.91
2023-02-19T01:17:27.015Z,101889.19
2023-02-19T01:19:56.396Z,101888.09
2023-02-19T01:22:22.808Z,101882.09
2023-02-19T01:24:50.664Z,101886.72
2023-02-19T01:27:17.233Z,101887.84
2023-02-19T01:29:45.439Z,101896.34
2023-02-19T01:32:11.957Z,101889.22
2023-02-19T01:34:38.648Z,101894.16
2023-02-19T01:37:11.115Z,101890.63
2023-02-19T01:39:41.719Z,101886.53
2023-02-19T01:42:19.668Z,101892.00
2023-02-19T01:44:46.061Z,101888.47
2023-02-19T01:47:13.687Z,101892.59
2023-02-19T01:49:50.122Z,101888.22
2023-02-19T01:52:23.259Z,101900.28
2023-02-19T01:54:50.469Z,101905.22
2023-02-19T01:57:22.754Z,101900.03
2023-02-19T01:59:54.828Z,101907.44
2023-02-19T02:02:27.407Z,101893.75
2023-02-19T02:05:18.107Z,101894.03
2023-02-19T02:11:18.157Z,101897.06
2023-02-19T02:13:45.553Z,101903.63
2023-02-19T02:16:40.134Z,101903.91
2023-02-19T02:19:34.234Z,101906.13
2023-02-19T02:22:29.284Z,101909.97
2023-02-19T02:25:08.177Z,101902.31
2023-02-19T02:28:01.659Z,101902.31
2023-02-19T02:30:39.655Z,101906.16
2023-02-19T02:33:31.550Z,101909.72
2023-02-19T02:36:24.649Z,101906.16
2023-02-19T02:38:54.070Z,101917.38
2023-02-19T02:41:22.435Z,101917.38
2023-02-19T02:43:48.993Z,101918.50
2023-02-19T02:46:22.801Z,101917.66
2023-02-19T02:48:58.482Z,101922.84
2023-02-19T02:51:34.500Z,101930.53
2023-02-19T02:54:31.462Z,101926.16
2023-02-19T02:57:00.935Z,101926.16
2023-02-19T02:59:39.757Z,101926.16
2023-02-19T03:02:15.018Z,101924.25
2023-02-19T03:05:16.066Z,101930.00
2023-02-19T03:08:04.099Z,101929.47
2023-02-19T03:10:39.482Z,101932.72
2023-02-19T03:13:29.243Z,101931.91
2023-02-19T03:16:24.950Z,101940.09
2023-02-19T03:19:13.506Z,101949.13
2023-02-19T03:21:43.712Z,101944.47
2023-02-19T03:24:31.413Z,101938.19
2023-02-19T03:27:00.758Z,101944.47
2023-02-19T03:29:35.530Z,101940.38
2023-02-19T03:32:14.565Z,101949.69
2023-02-19T03:34:51.600Z,101955.16
2023-02-19T03:37:28.143Z,101947.25
2023-02-19T03:39:58.581Z,101956.25
2023-02-19T03:42:35.335Z,101956.53
2023-02-19T03:45:26.637Z,101953.00
2023-02-19T03:48:09.358Z,101960.09
2023-02-19T03:50:58.906Z,101967.75
2023-02-19T03:53:45.739Z,101971.59
2023-02-19T03:56:34.166Z,101966.44
2023-02-19T03:59:15.893Z,101980.38
2023-02-19T04:02:03.519Z,101981.50
2023-02-19T04:04:45.128Z,101978.22
2023-02-19T04:07:14.421Z,101986.41
2023-02-19T04:09:46.319Z,101989.44
2023-02-19T04:12:19.044Z,101994.09
2023-02-19T04:15:00.691Z,101998.72
2023-02-19T04:17:34.097Z,102002.56
2023-02-19T04:20:06.143Z,101998.19
2023-02-19T04:22:36.457Z,102011.03
2023-02-19T04:25:03.323Z,102011.03
2023-02-19T04:27:29.789Z,102013.78
2023-02-19T04:29:57.011Z,102009.41
2023-02-19T04:32:23.625Z,102020.34
2023-02-19T04:34:52.298Z,102016.78
2023-02-19T04:37:20.439Z,102023.34
2023-02-19T04:39:46.895Z,102024.16
2023-02-19T04:42:15.212Z,102040.00
2023-02-19T04:44:41.694Z,102043.53
2023-02-19T04:47:08.169Z,102040.00
2023-02-19T04:49:34.965Z,102040.00
2023-02-19T04:52:01.596Z,102050.94
2023-02-19T04:54:28.066Z,102056.41
2023-02-19T04:56:54.514Z,102062.94
2023-02-19T04:59:21.018Z,102061.84
2023-02-19T05:01:47.639Z,102063.78
2023-02-19T05:04:14.287Z,102068.41
2023-02-19T05:06:40.764Z,102060.22
2023-02-19T05:09:07.440Z,102068.41
2023-02-19T05:11:33.999Z,102071.97
2023-02-19T05:14:00.478Z,102079.34
2023-02-19T05:16:27.011Z,102084.81
2023-02-19T05:19:05.897Z,102084.00
2023-02-19T05:21:57.568Z,102086.72
2023-02-19T05:24:28.422Z,102087.81
2023-02-19T05:26:55.107Z,102091.66
2023-02-19T05:29:21.797Z,102100.66
2023-02-19T05:31:49.310Z,102100.94
2023-02-19T05:34:16.125Z,102101.22
2023-02-19T05:36:45.779Z,102103.97
2023-02-19T05:39:18.326Z,102102.31
2023-02-19T05:41:46.840Z,102095.22
2023-02-19T05:44:22.190Z,102102.31
2023-02-19T05:46:48.787Z,102095.50
2023-02-19T05:49:15.401Z,102094.69
2023-02-19T05:51:42.192Z,102101.25
2023-02-19T05:54:10.174Z,102094.97
2023-02-19T05:56:47.742Z,102096.88
2023-02-19T05:59:20.770Z,102109.72
2023-02-19T06:01:52.608Z,102122.56
2023-02-19T06:04:22.199Z,102112.72
2023-02-19T06:06:49.102Z,102120.91
2023-02-19T06:09:18.688Z,102117.09
2023-02-19T06:11:45.473Z,102116.56
2023-02-19T06:14:18.091Z,102118.75
2023-02-19T06:16:50.594Z,102123.38
2023-02-19T06:19:17.249Z,102135.13
2023-02-19T06:21:44.030Z,102151.00
2023-02-19T06:24:23.058Z,102153.75
2023-02-19T06:26:52.759Z,102155.34
2023-02-19T06:29:19.382Z,102160.03
2023-02-19T06:31:46.029Z,102162.22
2023-02-19T06:34:25.318Z,102167.69
2023-02-19T06:36:52.557Z,102166.31
2023-02-19T06:39:19.183Z,102169.31
2023-02-19T06:41:45.671Z,102176.16
2023-02-19T06:44:12.521Z,102177.25
2023-02-19T06:46:39.306Z,102184.91
2023-02-19T06:49:08.108Z,102186.81
2023-02-19T06:51:34.677Z,102190.38
2023-02-19T06:54:02.372Z,102187.91
2023-02-19T06:56:39.662Z,102196.09
2023-02-19T06:59:10.298Z,102190.91
2023-02-19T07:01:37.623Z,102192.00
2023-02-19T07:04:05.104Z,102198.56
2023-02-19T07:06:33.431Z,102204.84
2023-02-19T07:09:01.394Z,102222.06
2023-02-19T07:11:31.632Z,102220.97
2023-02-19T07:14:00.190Z,102223.69
2023-02-19T07:16:27.359Z,102219.03
2023-02-19T07:18:56.982Z,102229.16
2023-02-19T07:21:23.802Z,102230.78
2023-02-19T07:23:50.306Z,102239.00
2023-02-19T07:26:18.204Z,102253.19
2023-02-19T07:28:46.669Z,102254.28
2023-02-19T07:31:14.795Z,102261.09
2023-02-19T07:33:44.731Z,102262.75
2023-02-19T07:36:15.147Z,102255.91
2023-02-19T07:38:41.686Z,102261.38
2023-02-19T07:41:08.796Z,102273.13
2023-02-19T07:43:37.951Z,102267.41
2023-02-19T07:46:13.123Z,102260.03
2023-02-19T07:48:44.899Z,102263.03
2023-02-19T07:51:16.423Z,102274.50
2023-02-19T07:53:42.941Z,102276.13
2023-02-19T07:56:11.640Z,102284.88
2023-02-19T07:58:38.793Z,102284.88
2023-02-19T08:01:15.158Z,102285.97
2023-02-19T08:03:42.249Z,102287.88
2023-02-19T08:06:13.473Z,102291.16
2023-02-19T08:08:40.249Z,102293.91
2023-02-19T08:11:25.925Z,102301.28
2023-02-19T08:13:53.159Z,102304.53
2023-02-19T08:16:36.793Z,102302.09
2023-02-19T08:21:51.174Z,102320.91
2023-02-19T08:24:18.980Z,102319.84
2023-02-19T08:26:45.419Z,102320.66
2023-02-19T08:29:11.972Z,102326.94
2023-02-19T08:31:38.920Z,102336.22
2023-02-19T08:34:06.043Z,102341.13
2023-02-19T08:36:33.103Z,102344.69
2023-02-19T08:38:59.785Z,102342.78
2023-02-19T08:41:26.520Z,102335.41
2023-02-19T08:43:53.018Z,102341.69
2023-02-19T08:46:19.559Z,102348.00
2023-02-19T08:48:46.181Z,102353.22
2023-02-19T08:51:13.109Z,102357.56
2023-02-19T08:53:40.720Z,102355.38
2023-02-19T08:56:12.941Z,102354.28
2023-02-19T08:58:40.505Z,102350.19
2023-02-19T09:01:10.964Z,102351.53
2023-02-19T09:03:37.786Z,102357.00
2023-02-19T09:06:04.988Z,102355.94
2023-02-19T09:08:33.397Z,102354.00
2023-02-19T09:11:07.012Z,102344.16
2023-02-19T09:13:53.010Z,102362.97
2023-02-19T09:16:27.435Z,102365.16
2023-02-19T09:18:54.069Z,102378.28
2023-02-19T09:22:21.854Z,102373.06
2023-02-19T09:24:56.231Z,102369.00
2023-02-19T09:27:25.383Z,102382.66
2023-02-19T09:29:51.990Z,102382.66
2023-02-19T09:32:19.339Z,102392.50
2023-02-19T09:35:11.437Z,102411.94
2023-02-19T09:40:22.447Z,102416.88
2023-02-19T09:42:51.238Z,102428.09
2023-02-19T09:45:39.483Z,102429.19
2023-02-19T09:48:22.433Z,102440.66
2023-02-19T09:50:53.553Z,102447.50
2023-02-19T09:56:29.909Z,102462.03
2023-02-19T09:59:23.761Z,102458.75
2023-02-19T10:03:19.711Z,102462.31
2023-02-19T10:05:53.987Z,102456.00
2023-02-19T10:11:48.992Z,102487.19
2023-02-19T10:14:22.830Z,102493.47
2023-02-19T10:16:50.300Z,102498.66
2023-02-19T10:19:19.928Z,102507.63
2023-02-19T10:21:56.850Z,102507.09
2023-02-19T10:24:41.963Z,102517.97
2023-02-19T10:27:34.494Z,102523.16
2023-02-19T10:30:01.774Z,102522.59
2023-02-19T10:32:29.501Z,102531.91
2023-02-19T10:35:31.115Z,102541.22
2023-02-19T10:38:01.332Z,102537.66
2023-02-19T10:40:29.038Z,102533.31
2023-02-19T10:43:02.169Z,102547.56
2023-02-19T10:45:47.918Z,102533.63
2023-02-19T10:48:36.953Z,102538.53
2023-02-19T10:51:06.060Z,102542.09
2023-02-19T10:53:42.358Z,102549.47
2023-02-19T10:56:13.000Z,102548.38
2023-02-19T11:01:27.982Z,102538.78
2023-02-19T11:04:20.602Z,102533.91
2023-02-19T11:07:32.597Z,102517.78
2023-02-19T11:10:03.155Z,102528.41
2023-02-19T11:12:33.420Z,102532.53
2023-02-19T11:15:24.611Z,102538.53
2023-02-19T11:18:26.409Z,102546.19
2023-02-19T11:21:04.656Z,102550.56
2023-02-19T11:23:40.293Z,102550.84
2023-02-19T11:26:20.618Z,102553.31
2023-02-19T11:28:57.914Z,102553.00
2023-02-19T11:31:32.457Z,102548.38
2023-02-19T11:34:24.870Z,102555.50
2023-02-19T11:37:14.898Z,102544.00
2023-02-19T11:39:47.513Z,102555.25
2023-02-19T11:42:29.197Z,102558.53
2023-02-19T11:45:36.503Z,102560.94
2023-02-19T11:48:57.514Z,102563.69
2023-02-19T11:51:59.009Z,102557.41
2023-02-19T11:54:54.533Z,102553.31
2023-02-19T11:57:37.997Z,102544.81
2023-02-19T12:00:31.678Z,102553.59
2023-02-19T12:03:31.457Z,102554.94
2023-02-19T12:06:25.994Z,102564.78
2023-02-19T12:08:55.628Z,102560.13
2023-02-19T12:11:35.212Z,102562.81
2023-02-19T12:14:27.634Z,102572.28
2023-02-19T12:17:14.337Z,102573.38
2023-02-19T12:20:14.244Z,102569.84
2023-02-19T12:22:46.479Z,102571.72
2023-02-19T12:25:32.232Z,102577.97
2023-02-19T12:28:06.050Z,102571.38
2023-02-19T12:31:23.665Z,102574.34
2023-02-19T12:34:15.457Z,102568.59
2023-02-19T12:36:56.284Z,102580.34
2023-02-19T12:39:43.002Z,102582.25
2023-02-19T12:42:31.683Z,102586.34
2023-02-19T12:45:06.576Z,102585.81
2023-02-19T12:47:39.303Z,102589.09
2023-02-19T12:50:27.374Z,102589.13
2023-02-19T12:53:35.149Z,102607.41
2023-02-19T12:56:05.306Z,102604.09
2023-02-19T12:58:45.320Z,102612.84
2023-02-19T13:01:21.048Z,102620.47
2023-02-19T13:04:02.653Z,102622.94
2023-02-19T13:06:45.224Z,102626.50
2023-02-19T13:09:29.450Z,102624.28
2023-02-19T13:12:04.650Z,102631.34
2023-02-19T13:14:37.426Z,102631.63
2023-02-19T13:17:27.680Z,102642.28
2023-02-19T13:20:02.639Z,102650.47
2023-02-19T13:23:16.988Z,102655.38
2023-02-19T13:26:05.511Z,102663.81
2023-02-19T13:29:12.491Z,102672.19
2023-02-19T13:31:57.978Z,102665.28
2023-02-19T13:34:50.006Z,102665.84
2023-02-19T13:37:17.662Z,102661.19
2023-02-19T13:39:50.845Z,102661.72
2023-02-19T13:42:36.659Z,102669.09
2023-02-19T13:45:06.314Z,102669.66
2023-02-19T13:47:48.196Z,102685.47
2023-02-19T13:50:25.071Z,102676.19
2023-02-19T13:52:53.913Z,102689.84
2023-02-19T13:55:53.853Z,102692.00
2023-02-19T13:58:32.797Z,102691.69
2023-02-19T14:01:01.346Z,102681.09
2023-02-19T14:03:52.004Z,102688.19
2023-02-19T14:06:18.970Z,102690.41
2023-02-19T14:08:53.216Z,102696.41
2023-02-19T14:11:42.589Z,102697.00
2023-02-19T14:14:41.260Z,102691.03
2023-02-19T14:17:12.526Z,102696.53
2023-02-19T14:19:41.724Z,102686.69
2023-02-19T14:22:47.190Z,102682.88
2023-02-19T14:25:31.214Z,102680.25
2023-02-19T14:28:06.668Z,102677.56
2023-02-19T14:30:40.490Z,102675.09
2023-02-19T14:33:11.444Z,102669.94
2023-02-19T14:35:45.041Z,102666.47
2023-02-19T14:38:25.289Z,102667.84
2023-02-19T14:40:54.070Z,102664.25
2023-02-19T14:43:24.763Z,102653.88
2023-02-19T14:45:57.477Z,102649.81
2023-02-19T14:48:30.445Z,102640.53
2023-02-19T14:51:25.209Z,102645.47
2023-02-19T14:53:53.856Z,102641.66
2023-02-19T14:56:27.979Z,102642.78
2023-02-19T14:59:28.648Z,102636.75
2023-02-19T15:01:57.404Z,102634.84
2023-02-19T15:04:27.679Z,102623.09
2023-02-19T15:06:57.070Z,102624.19
2023-02-19T15:09:31.047Z,102624.75
2023-02-19T15:11:58.332Z,102628.59
2023-02-19T15:14:28.544Z,102635.16
2023-02-19T15:17:00.057Z,102641.44
2023-02-19T15:19:26.921Z,102646.34
2023-02-19T15:21:55.097Z,102664.41
2023-02-19T15:24:22.009Z,102660.31
2023-02-19T15:26:51.658Z,102676.41
2023-02-19T15:29:23.524Z,102679.66
2023-02-19T15:31:53.370Z,102685.13
2023-02-19T15:34:23.506Z,102698.53
2023-02-19T15:36:53.012Z,102696.31
2023-02-19T15:39:31.859Z,102702.06
2023-02-19T15:42:02.130Z,102698.47
2023-02-19T15:45:03.919Z,102697.28
2023-02-19T15:47:51.785Z,102698.91
2023-02-19T15:50:26.912Z,102697.81
2023-02-19T15:52:59.379Z,102689.00
2023-02-19T15:56:01.302Z,102677.22
2023-02-19T15:58:56.968Z,102679.38
2023-02-19T16:01:25.286Z,102690.03
2023-02-19T16:03:54.215Z,102704.53
2023-02-19T16:06:24.308Z,102708.53
2023-02-19T16:09:19.320Z,102719.97
2023-02-19T16:11:58.330Z,102731.97
2023-02-19T16:14:40.846Z,102730.03
2023-02-19T16:17:10.058Z,102739.56
2023-02-19T16:19:53.348Z,102735.75
2023-02-19T16:22:23.410Z,102738.47
2023-02-19T16:24:56.072Z,102732.44
2023-02-19T16:27:34.485Z,102741.16
2023-02-19T16:30:09.663Z,102741.72
2023-02-19T16:35:41.094Z,102747.44
2023-02-19T16:38:14.128Z,102749.06
2023-02-19T16:41:10.812Z,102742.97
2023-02-19T16:44:27.911Z,102749.19
2023-02-19T16:47:29.699Z,102751.88
2023-02-19T16:50:01.169Z,102757.00
2023-02-19T16:52:28.380Z,102759.75
2023-02-19T16:54:54.943Z,102769.56
2023-02-19T16:57:21.644Z,102768.50
2023-02-19T16:59:48.146Z,102762.78
2023-02-19T17:02:22.334Z,102758.91
2023-02-19T17:04:50.681Z,102746.59
2023-02-19T17:07:18.150Z,102750.16
2023-02-19T17:09:46.754Z,102747.69
2023-02-19T17:12:16.006Z,102753.13
2023-02-19T17:14:42.706Z,102737.50
2023-02-19T17:17:09.217Z,102751.66
2023-02-19T17:19:35.837Z,102745.94
2023-02-19T17:22:02.425Z,102752.81
2023-02-19T17:24:28.930Z,102750.91
2023-02-19T17:26:55.441Z,102765.09
2023-02-19T17:29:22.208Z,102768.34
2023-02-19T17:31:49.074Z,102764.47
2023-02-19T17:34:15.846Z,102772.09
2023-02-19T17:36:45.249Z,102772.28
2023-02-19T17:39:17.790Z,102774.44
2023-02-19T17:41:45.519Z,102776.00
2023-02-19T17:44:12.044Z,102793.44
2023-02-19T17:46:39.542Z,102793.44
2023-02-19T17:49:07.467Z,102797.00
2023-02-19T17:51:34.764Z,102798.31
2023-02-19T17:54:01.556Z,102807.00
2023-02-19T17:56:28.317Z,102804.00
2023-02-19T17:58:59.295Z,102806.72
2023-02-19T18:01:33.688Z,102802.88
2023-02-19T18:04:00.326Z,102796.88
2023-02-19T18:06:28.200Z,102804.25
2023-02-19T18:08:54.849Z,102795.53
2023-02-19T18:11:30.455Z,102789.53
2023-02-19T18:13:57.510Z,102782.44
2023-02-19T18:16:27.156Z,102781.59
2023-02-19T18:22:54.269Z,102771.53
2023-02-19T18:25:28.018Z,102769.81
2023-02-19T18:27:59.544Z,102770.81
2023-02-19T18:30:29.548Z,102770.22
2023-02-19T18:32:56.323Z,102775.03
2023-02-19T18:35:23.105Z,102767.94
2023-02-19T18:38:15.277Z,102772.56
2023-02-19T18:40:51.523Z,102773.56
2023-02-19T18:43:18.036Z,102780.88
2023-02-19T18:45:46.483Z,102777.56
2023-02-19T18:48:13.884Z,102774.75
2023-02-19T18:50:40.535Z,102778.47
2023-02-19T18:53:07.251Z,102775.69
2023-02-19T18:55:33.872Z,102776.16
2023-02-19T18:58:00.349Z,102775.00
2023-02-19T19:00:28.055Z,102779.59
2023-02-19T19:02:56.817Z,102781.97
2023-02-19T19:05:23.959Z,102774.31
2023-02-19T19:07:52.524Z,102774.78
2023-02-19T19:10:19.783Z,102779.66
2023-02-19T19:12:46.386Z,102781.22
2023-02-19T19:15:12.862Z,102787.16
2023-02-19T19:17:40.422Z,102788.97
2023-02-19T19:20:07.761Z,102788.16
2023-02-19T19:22:34.376Z,102789.69
2023-02-19T19:25:00.946Z,102795.41
2023-02-19T19:27:28.639Z,102804.28
2023-02-19T19:29:56.375Z,102803.38
2023-02-19T19:32:23.059Z,102806.00
2023-02-19T19:34:50.793Z,102804.59
2023-02-19T19:37:17.439Z,102797.75
2023-02-19T19:39:43.884Z,102801.19
2023-02-19T19:42:10.964Z,102800.03
2023-02-19T19:44:37.854Z,102795.06
2023-02-19T19:47:04.763Z,102809.19
2023-02-19T19:49:35.366Z,102803.41
2023-02-19T19:52:01.955Z,102803.31
2023-02-19T19:54:28.687Z,102808.16
2023-02-19T19:56:55.194Z,102801.31
2023-02-19T19:59:23.034Z,102779.78
2023-02-19T20:01:57.818Z,102793.03
2023-02-19T20:04:25.888Z,102792.47
2023-02-19T20:06:54.436Z,102791.63
2023-02-19T20:09:25.462Z,102781.72
2023-02-19T20:11:53.839Z,102790.38
2023-02-19T20:14:22.852Z,102799.84
2023-02-19T20:16:50.469Z,102790.28
2023-02-19T20:19:19.391Z,102791.59
2023-02-19T20:22:00.353Z,102787.69
2023-02-19T20:24:31.023Z,102785.44
2023-02-19T20:27:00.017Z,102769.38
2023-02-19T20:29:31.830Z,102776.38
2023-02-19T20:32:00.021Z,102786.06
2023-02-19T20:34:27.140Z,102780.88
2023-02-19T20:36:54.202Z,102789.03
2023-02-19T20:39:22.118Z,102781.94
2023-02-19T20:41:51.291Z,102782.16
2023-02-19T20:44:19.521Z,102779.94
2023-02-19T20:46:51.735Z,102781.81
2023-02-19T20:49:29.173Z,102783.41
2023-02-19T20:51:58.416Z,102786.34
2023-02-19T20:54:28.287Z,102781.63
2023-02-19T20:56:57.546Z,102786.22
2023-02-19T20:59:32.761Z,102783.75
2023-02-19T21:01:59.614Z,102773.34
2023-02-19T21:04:27.087Z,102769.47
2023-02-19T21:06:53.657Z,102764.75
2023-02-19T21:09:24.089Z,102760.38
2023-02-19T21:11:52.946Z,102737.47
2023-02-19T21:14:19.694Z,102737.94
2023-02-19T21:16:46.220Z,102737.63
2023-02-19T21:19:12.789Z,102738.91
2023-02-19T21:21:40.305Z,102728.88
2023-02-19T21:24:12.293Z,102742.69
2023-02-19T21:26:40.854Z,102739.16
2023-02-19T21:29:11.026Z,102745.66
2023-02-19T21:35:25.842Z,102733.13
2023-02-19T21:37:59.541Z,102740.22
2023-02-19T21:40:32.036Z,102750.25
2023-02-19T21:42:58.716Z,102751.91
2023-02-19T21:45:25.553Z,102761.94
2023-02-19T21:47:58.084Z,102750.50
2023-02-19T21:50:28.604Z,102747.78
2023-02-19T21:55:38.515Z,102749.06
2023-02-19T21:58:05.241Z,102758.88
2023-02-19T22:00:35.993Z,102749.31
2023-02-19T22:03:02.764Z,102759.13
2023-02-19T22:05:29.424Z,102745.78
2023-02-19T22:08:05.730Z,102743.88
2023-02-19T22:10:32.514Z,102744.94
2023-02-19T22:13:24.860Z,102746.00
2023-02-19T22:15:49.462Z,102750.84
2023-02-19T22:18:16.074Z,102743.75
2023-02-19T22:21:11.373Z,102746.47
2023-02-19T22:23:37.914Z,102753.56
2023-02-19T22:26:31.982Z,102732.06
2023-02-19T22:29:26.566Z,102737.75
2023-02-19T22:32:18.125Z,102729.59
2023-02-19T22:34:44.742Z,102721.69
2023-02-19T22:37:11.430Z,102724.97
2023-02-19T22:39:38.170Z,102714.13
2023-02-19T22:42:29.213Z,102720.84
2023-02-19T22:45:12.166Z,102714.59
2023-02-19T22:47:57.751Z,102715.41
2023-02-19T22:50:30.624Z,102716.97
2023-02-19T22:53:22.370Z,102719.19
2023-02-19T22:55:48.953Z,102710.22
2023-02-19T22:58:22.625Z,102702.91
2023-02-19T23:00:49.302Z,102698.78
2023-02-19T23:03:16.040Z,102704.78
2023-02-19T23:05:42.692Z,102696.41
2023-02-19T23:08:32.776Z,102699.13
2023-02-19T23:11:25.586Z,102686.63
2023-02-19T23:14:21.124Z,102686.13
2023-02-19T23:16:49.480Z,102683.44
2023-02-19T23:19:41.434Z,102684.84
2023-02-19T23:22:11.641Z,102687.31
2023-02-19T23:24:40.824Z,102683.53
2023-02-19T23:27:07.456Z,102685.19
2023-02-19T23:29:59.118Z,102688.50
2023-02-19T23:32:30.497Z,102689.09
2023-02-19T23:35:00.170Z,102695.09
2023-02-19T23:39:01.905Z,102691.91
2023-02-19T23:40:49.626Z,102706.91
2023-02-19T23:43:43.621Z,102702.88
2023-02-19T23:46:15.281Z,102692.34
2023-02-19T23:48:42.007Z,102690.44
2023-02-19T23:51:08.680Z,102683.94
2023-02-19T23:53:36.891Z,102673.09
2023-02-19T23:56:03.817Z,102660.09
2023-02-19T23:58:30.833Z,102649.81
